Últimos artigos:
Resolvendo um problema de áudio no GNU Radio
Converter um número Real para o formato binário em vírgula flutuante segundo a Norma IEEE-754
VirtualBox sobre Debian 10 (buster) não encontra dispositivos USB
Falta de som no Morse Runner em Linux?
Touchpad tapping, em Debian Buster (10)
Acender um LED com a tensão da rede eléctrica
Últimas fotos:
Últimos METARs:
LPAZ 312330Z 04005KT 9999 FEW020 21/19 Q10...
LPFR 312330Z 32005KT 260V060 CAVOK 19/10 Q...
LPHR 312000Z VRB07KT 9999 FEW020 25/18 Q10...
LPLA 312300Z /////KT 9999 FEW016 SCT035 23...
LPMA 312330Z 01014KT 320V050 9999 SCT015 2...
LPPD 312330Z 35006KT 330V030 9999 FEW018 S...
LPPR 312330Z 00000KT CAVOK 14/13 Q1020=
LPPS 312330Z 05010KT 9999 BKN015 21/15 Q10...
LPPT 312330Z 31011KT CAVOK 16/13 Q1020 WS ...
Últimos QSOs:
2021/03/17-20:16 70cm IK2XRL (MAURO)
2021/03/17-14:53 70cm EB3JT (JORDI)
2021/03/17-14:47 70cm EB3JT (JORDI)
2021/03/17-14:45 70cm EA7GPW (FRANCISCO)
2021/03/16-11:16 2m 7X3WPL (SAHARA)
2021/03/16-11:13 2m EC4TR (J.)
  UTC
Rpi-6 CPU Temp: 454642.0 °C (251812Z)
IN51oq 0013Z /////KT //// 25/13 Q1020=
230149